Time;durP1;ratioP1;P1;durP2;ratioP2;P2;SDS_P1;SDS_P2;PMS_P1;PMS_P2;Temp;Humidity;BMP_temperature;BMP_pressure;BME280_temperature;BME280_humidity;BME280_pressure;Samples;Min_cycle;Max_cycle;Signal;HPM_P1;HPM_P2
2024/01/21 13:20:30;;;;;;;15.27;6.88;;;;;;;21.30;54.86;100943.56;5085329;28;20171;-62
2024/01/21 13:22:56;;;;;;;19.33;13.05;;;;;;;18.53;27.55;100949.97;5085263;28;20045;-74
2024/01/21 13:25:24;;;;;;;21.73;13.80;;;;;;;17.66;27.69;100952.47;5085253;28;20044;-76
2024/01/21 13:28:06;;;;;;;18.33;13.40;;;;;;;17.43;28.50;100947.41;5085158;28;20409;-78
2024/01/21 13:30:45;;;;;;;19.27;13.48;;;;;;;17.05;28.12;100953.75;5085553;27;20099;-78
2024/01/21 13:33:13;;;;;;;20.25;14.35;;;;;;;15.30;30.01;100949.56;5085364;27;20080;-79
2024/01/21 13:35:44;;;;;;;21.02;14.75;;;;;;;15.09;30.87;100947.75;5085163;28;20119;-79
2024/01/21 13:38:11;;;;;;;19.27;14.13;;;;;;;15.42;31.08;100952.19;5084742;28;20131;-79
2024/01/21 13:40:40;;;;;;;20.05;14.40;;;;;;;14.34;32.03;100950.84;5084906;28;20554;-81
2024/01/21 13:43:08;;;;;;;21.17;14.27;;;;;;;12.08;35.54;100964.06;5085258;28;20466;-81
2024/01/21 13:45:34;;;;;;;22.90;15.10;;;;;;;12.53;35.08;100968.22;5085309;28;20127;-81
2024/01/21 13:48:02;;;;;;;19.20;13.88;;;;;;;12.21;36.10;100971.22;5085281;28;20041;-83
2024/01/21 13:50:28;;;;;;;20.75;15.85;;;;;;;11.52;36.37;100963.09;5085219;27;20044;-81
2024/01/21 13:52:59;;;;;;;21.30;16.17;;;;;;;10.94;38.27;100968.09;5085070;28;20131;-82
2024/01/21 13:55:26;;;;;;;28.63;19.98;;;;;;;10.66;38.98;100965.75;5085123;27;20048;-79
2024/01/21 13:57:52;;;;;;;24.55;15.35;;;;;;;10.86;38.85;100968.75;5084550;28;20119;-78
2024/01/21 14:00:22;;;;;;;19.25;14.05;;;;;;;11.34;37.85;100957.53;5085307;27;20059;-77
2024/01/21 14:02:49;;;;;;;20.88;14.48;;;;;;;10.43;38.40;100963.53;5126168;27;20052;-78
2024/01/21 14:05:16;;;;;;;24.75;16.08;;;;;;;9.68;40.69;100974.72;4995474;27;20039;-78
2024/01/21 14:07:42;;;;;;;24.48;16.13;;;;;;;9.55;41.27;100979.56;4921009;27;82892;-79
2024/01/21 14:10:10;;;;;;;23.85;16.65;;;;;;;9.70;40.76;100973.91;5105789;28;20048;-78
2024/01/21 14:12:38;;;;;;;26.40;18.25;;;;;;;9.92;40.22;100979.63;5128907;28;20130;-79
2024/01/21 14:15:05;;;;;;;25.02;18.00;;;;;;;9.68;40.79;100969.50;5128849;28;20050;-80
2024/01/21 14:17:33;;;;;;;28.08;18.92;;;;;;;9.20;42.03;100963.91;5128813;28;20118;-78
2024/01/21 14:19:59;;;;;;;30.73;20.30;;;;;;;8.39;44.05;100961.50;5128101;28;20143;-78
2024/01/21 14:22:26;;;;;;;26.48;19.33;;;;;;;7.60;45.13;100966.78;5128518;28;20126;-78
2024/01/21 14:24:53;;;;;;;29.67;21.30;;;;;;;6.76;48.10;100971.56;5039353;27;20053;-78
2024/01/21 14:27:21;;;;;;;32.08;22.27;;;;;;;5.84;49.50;100977.44;5084521;28;20572;-78
2024/01/21 14:29:49;;;;;;;33.17;22.65;;;;;;;5.41;51.35;100978.22;5079711;28;20134;-78
2024/01/21 14:32:15;;;;;;;34.78;23.52;;;;;;;5.10;52.50;100986.34;5060701;28;20122;-77
2024/01/21 14:34:42;;;;;;;40.58;24.80;;;;;;;4.60;54.24;100992.69;5069793;28;20136;-77
2024/01/21 14:37:08;;;;;;;36.95;24.50;;;;;;;4.18;55.46;100982.09;5070792;28;20122;-78
2024/01/21 14:39:35;;;;;;;38.25;25.42;;;;;;;4.07;55.76;100992.78;5076034;28;20046;-79
2024/01/21 14:42:02;;;;;;;39.33;26.17;;;;;;;3.84;56.78;100990.75;5065198;28;20037;-78
2024/01/21 14:44:30;;;;;;;40.42;25.63;;;;;;;3.62;57.84;101000.00;5082150;28;20132;-78
2024/01/21 14:46:57;;;;;;;38.70;26.23;;;;;;;3.38;58.87;100993.63;5064756;28;20134;-78
2024/01/21 14:49:25;;;;;;;45.05;27.48;;;;;;;3.19;59.25;100992.66;5074536;28;20042;-78
2024/01/21 14:51:52;;;;;;;43.30;26.63;;;;;;;3.10;59.47;101002.47;5067499;28;20041;-78
2024/01/21 14:54:18;;;;;;;41.97;27.38;;;;;;;2.85;60.43;100995.13;5072700;28;20047;-78
2024/01/21 14:56:45;;;;;;;41.33;26.52;;;;;;;2.66;61.68;101006.16;5063893;28;20579;-79
2024/01/21 14:59:11;;;;;;;43.40;27.88;;;;;;;2.43;62.12;101007.47;5067456;28;20139;-78
2024/01/21 15:01:39;;;;;;;41.70;26.38;;;;;;;2.22;62.79;101005.44;5084636;28;20042;-78
2024/01/21 15:04:06;;;;;;;43.22;26.60;;;;;;;1.98;63.63;101002.38;5053286;28;20040;-78
2024/01/21 15:06:32;;;;;;;42.85;25.58;;;;;;;1.91;63.74;101013.97;5076041;28;20652;-79
2024/01/21 15:08:59;;;;;;;40.50;25.55;;;;;;;1.69;64.30;101011.88;5023554;28;20137;-79
2024/01/21 15:11:27;;;;;;;42.38;25.42;;;;;;;1.60;64.61;101015.59;5011474;28;20137;-79
2024/01/21 15:13:57;;;;;;;42.80;26.08;;;;;;;1.55;65.21;101015.28;5113809;28;20414;-78
2024/01/21 15:16:23;;;;;;;43.25;26.50;;;;;;;1.41;65.48;101019.63;5113825;28;20704;-79
2024/01/21 15:18:51;;;;;;;41.70;25.50;;;;;;;1.31;66.41;101022.44;5113686;28;20083;-78
2024/01/21 15:21:18;;;;;;;49.90;27.23;;;;;;;1.19;66.53;101030.28;5114249;28;20118;-79
2024/01/21 15:23:45;;;;;;;46.33;27.33;;;;;;;1.15;66.45;101031.78;5115062;28;20103;-80
2024/01/21 15:26:11;;;;;;;48.80;29.70;;;;;;;0.99;67.75;101034.22;5117456;28;20131;-79
2024/01/21 15:28:38;;;;;;;48.25;30.38;;;;;;;0.94;67.55;101033.91;5117534;28;20454;-79
2024/01/21 15:31:04;;;;;;;50.00;29.80;;;;;;;0.87;68.04;101028.31;5114693;28;20130;-79
2024/01/21 15:33:31;;;;;;;56.05;30.15;;;;;;;0.80;68.06;101033.88;5114181;28;20126;-79
2024/01/21 15:35:59;;;;;;;48.33;28.52;;;;;;;0.71;68.62;101031.59;5114645;28;20150;-80
2024/01/21 15:38:26;;;;;;;49.53;29.80;;;;;;;0.66;68.72;101043.25;5115346;28;20684;-79
2024/01/21 15:40:52;;;;;;;63.20;34.80;;;;;;;0.57;69.28;101044.44;5117137;28;20066;-82
2024/01/21 15:43:19;;;;;;;62.70;37.55;;;;;;;0.44;70.15;101049.59;5115265;28;20075;-78
2024/01/21 15:45:46;;;;;;;66.70;38.22;;;;;;;0.34;70.62;101049.78;5040329;28;20092;-80
2024/01/21 15:48:13;;;;;;;53.88;33.47;;;;;;;0.36;70.48;101051.66;5004408;28;20121;-79
2024/01/21 15:50:40;;;;;;;61.30;35.08;;;;;;;0.33;70.34;101053.13;5003309;28;20046;-73
2024/01/21 15:53:08;;;;;;;61.53;35.42;;;;;;;0.22;70.97;101054.13;4997347;28;20085;-71
2024/01/21 15:55:37;;;;;;;64.97;37.70;;;;;;;0.17;71.40;101056.38;4991982;28;20125;-71
2024/01/21 15:58:04;;;;;;;63.97;37.63;;;;;;;-0.01;72.09;101066.31;5014182;28;20060;-74
2024/01/21 16:00:32;;;;;;;60.30;36.65;;;;;;;0.00;71.93;101052.75;5028231;28;20441;-73
2024/01/21 16:03:01;;;;;;;57.92;36.00;;;;;;;-0.04;72.18;101048.19;5009306;28;20056;-72
2024/01/21 16:05:27;;;;;;;54.92;34.13;;;;;;;-0.15;72.49;101051.72;4997068;28;20141;-74
2024/01/21 16:07:54;;;;;;;53.97;33.80;;;;;;;-0.26;73.00;101059.56;4990004;28;20085;-73
2024/01/21 16:10:22;;;;;;;56.40;34.33;;;;;;;-0.30;73.14;101052.47;5008945;28;20129;-73
2024/01/21 16:12:49;;;;;;;61.92;35.70;;;;;;;-0.36;73.33;101057.19;5016421;28;20125;-73
2024/01/21 16:15:16;;;;;;;61.88;35.65;;;;;;;-0.42;72.92;101049.09;4988781;28;20129;-72
2024/01/21 16:17:44;;;;;;;56.03;35.05;;;;;;;-0.54;74.02;101061.97;4987878;28;20039;-72
2024/01/21 16:20:12;;;;;;;57.90;33.67;;;;;;;-0.59;74.05;101063.31;5002960;28;20058;-73
2024/01/21 16:22:38;;;;;;;59.95;34.33;;;;;;;-0.65;74.65;101066.34;4989837;28;20145;-73
2024/01/21 16:25:06;;;;;;;56.40;34.25;;;;;;;-0.71;74.84;101070.16;4989543;28;20056;-72
2024/01/21 16:27:35;;;;;;;57.47;33.92;;;;;;;-0.77;74.98;101073.19;4992107;28;20050;-71
2024/01/21 16:30:01;;;;;;;60.50;35.38;;;;;;;-0.81;75.23;101084.00;4993720;28;20125;-73
2024/01/21 16:32:28;;;;;;;61.50;35.72;;;;;;;-0.86;75.04;101086.22;4989192;28;20060;-72
2024/01/21 16:34:55;;;;;;;66.03;36.70;;;;;;;-0.85;75.24;101084.56;4996049;28;20125;-71
2024/01/21 16:37:21;;;;;;;63.70;37.90;;;;;;;-0.95;75.90;101089.81;5008836;28;20137;-70
2024/01/21 16:39:48;;;;;;;67.95;38.30;;;;;;;-1.02;76.00;101093.59;5008702;28;20136;-70
2024/01/21 16:42:15;;;;;;;69.63;36.45;;;;;;;-1.14;76.71;101096.19;5009061;28;20141;-70
2024/01/21 16:44:44;;;;;;;69.57;38.63;;;;;;;-1.19;76.05;101097.53;5008975;28;20120;-69
2024/01/21 16:47:11;;;;;;;67.53;38.05;;;;;;;-1.19;76.02;101105.19;5000973;28;20046;-70
2024/01/21 16:49:38;;;;;;;74.78;39.50;;;;;;;-1.26;77.04;101110.66;4994538;28;20136;-69
2024/01/21 16:52:07;;;;;;;70.32;38.88;;;;;;;-1.28;76.48;101113.13;5008199;28;20450;-70
2024/01/21 16:54:34;;;;;;;69.22;39.45;;;;;;;-1.31;76.82;101118.00;5003904;28;20064;-70
2024/01/21 16:57:01;;;;;;;74.07;39.97;;;;;;;-1.36;77.38;101118.44;4993463;28;20043;-70
2024/01/21 16:59:29;;;;;;;76.13;39.10;;;;;;;-1.41;76.97;101116.44;5008559;28;20452;-70
2024/01/21 17:02:00;;;;;;;80.85;41.50;;;;;;;-1.44;77.18;101108.53;5004538;28;20054;-71
2024/01/21 17:04:26;;;;;;;75.55;41.13;;;;;;;-1.47;77.41;101110.91;4996400;28;20045;-70
2024/01/21 17:06:53;;;;;;;74.22;40.60;;;;;;;-1.55;77.67;101108.53;4989121;28;20137;-71
2024/01/21 17:09:23;;;;;;;79.80;41.22;;;;;;;-1.52;77.45;101106.22;4994780;28;20050;-71
2024/01/21 17:11:50;;;;;;;78.10;42.45;;;;;;;-1.53;77.61;101097.69;4991221;28;20125;-72
2024/01/21 17:14:19;;;;;;;92.97;43.70;;;;;;;-1.68;78.30;101101.69;4988886;28;20542;-71
2024/01/21 17:16:46;;;;;;;83.10;41.30;;;;;;;-1.73;78.27;101100.44;4993143;28;20475;-70
2024/01/21 17:19:15;;;;;;;84.28;42.63;;;;;;;-1.74;77.85;101108.91;5005209;28;20080;-69
2024/01/21 17:21:41;;;;;;;84.50;43.97;;;;;;;-1.79;78.21;101111.09;5010381;28;20046;-70
2024/01/21 17:24:10;;;;;;;81.38;41.45;;;;;;;-1.76;78.42;101112.97;5002677;28;20147;-70
2024/01/21 17:26:36;;;;;;;75.22;39.92;;;;;;;-1.78;77.82;101105.22;4988887;28;20593;-71
2024/01/21 17:29:03;;;;;;;79.13;40.85;;;;;;;-1.82;78.31;101106.66;5001143;28;20049;-71
2024/01/21 17:31:30;;;;;;;79.55;40.67;;;;;;;-1.82;77.96;101106.66;5008184;28;20590;-71
2024/01/21 17:33:57;;;;;;;83.47;42.53;;;;;;;-1.82;78.04;101108.34;5008586;28;20056;-73
2024/01/21 17:36:26;;;;;;;78.68;40.85;;;;;;;-1.88;78.31;101106.22;5008666;28;20119;-72
2024/01/21 17:38:53;;;;;;;80.93;41.13;;;;;;;-1.90;78.25;101112.88;5008344;28;20053;-71
2024/01/21 17:41:20;;;;;;;84.05;42.45;;;;;;;-1.99;78.33;101122.41;5008258;28;20141;-71
2024/01/21 17:43:47;;;;;;;83.40;40.70;;;;;;;-2.04;78.15;101124.59;5008376;28;20057;-71
2024/01/21 17:46:14;;;;;;;81.22;40.63;;;;;;;-2.08;78.58;101126.81;5007896;28;20054;-71
2024/01/21 17:48:41;;;;;;;84.00;41.33;;;;;;;-2.13;78.98;101129.03;5008174;28;20077;-71
2024/01/21 17:51:07;;;;;;;85.88;41.28;;;;;;;-2.18;78.93;101131.22;5007985;28;20050;-71
2024/01/21 17:53:35;;;;;;;80.03;39.45;;;;;;;-2.21;78.67;101125.91;4999665;28;20129;-70
2024/01/21 17:56:02;;;;;;;81.68;39.13;;;;;;;-2.28;79.31;101122.75;5004096;28;20050;-70
2024/01/21 17:58:29;;;;;;;72.53;37.28;;;;;;;-2.41;80.02;101128.59;5008334;28;20112;-70
2024/01/21 18:00:55;;;;;;;77.25;40.33;;;;;;;-2.42;80.18;101126.81;5000059;28;20520;-71
2024/01/21 18:03:22;;;;;;;79.93;39.03;;;;;;;-2.46;80.20;101135.91;4988434;28;20103;-71
2024/01/21 18:05:49;;;;;;;79.13;38.38;;;;;;;-2.45;79.77;101126.56;4989838;28;20151;-71
2024/01/21 18:08:15;;;;;;;81.70;38.17;;;;;;;-2.49;80.16;101122.03;4991903;28;20047;-71
2024/01/21 18:10:43;;;;;;;75.53;37.92;;;;;;;-2.48;80.21;101123.78;4991889;28;20133;-70
2024/01/21 18:13:10;;;;;;;75.88;39.28;;;;;;;-2.55;80.54;101134.31;4999786;28;20037;-70
2024/01/21 18:15:36;;;;;;;82.22;39.33;;;;;;;-2.48;79.99;101128.88;5000493;28;20489;-71
2024/01/21 18:18:04;;;;;;;70.57;37.75;;;;;;;-2.44;79.99;101130.94;4991841;28;20081;-71
2024/01/21 18:20:30;;;;;;;76.63;37.88;;;;;;;-2.45;79.70;101132.56;4991864;28;20126;-72
2024/01/21 18:22:57;;;;;;;68.97;36.03;;;;;;;-2.53;79.80;101131.09;4995082;28;20129;-71
2024/01/21 18:25:24;;;;;;;84.22;37.40;;;;;;;-2.55;79.67;101136.88;4992352;28;20113;-71
2024/01/21 18:27:52;;;;;;;76.50;37.67;;;;;;;-2.62;80.04;101150.78;5007305;28;20121;-72
2024/01/21 18:30:19;;;;;;;75.07;37.17;;;;;;;-2.73;80.33;101137.22;5009939;28;20587;-71
2024/01/21 18:32:46;;;;;;;80.88;36.20;;;;;;;-2.82;80.77;101137.38;5011356;28;20046;-72
2024/01/21 18:35:13;;;;;;;72.38;37.17;;;;;;;-2.81;80.34;101138.25;4994561;28;20057;-71
2024/01/21 18:37:40;;;;;;;71.75;35.83;;;;;;;-2.76;80.03;101139.50;5007182;28;20076;-71
2024/01/21 18:40:08;;;;;;;69.63;35.80;;;;;;;-2.75;79.77;101133.66;5000102;28;20480;-71
2024/01/21 18:42:34;;;;;;;77.13;36.55;;;;;;;-2.70;79.66;101129.78;5011240;28;20060;-71
2024/01/21 18:45:02;;;;;;;72.10;35.78;;;;;;;-2.83;80.42;101133.06;4997245;28;20107;-72
2024/01/21 18:47:29;;;;;;;69.82;35.65;;;;;;;-2.77;80.23;101130.09;4991837;28;20123;-71
2024/01/21 18:49:56;;;;;;;70.60;35.15;;;;;;;-2.80;80.45;101119.66;4991325;28;20052;-70
2024/01/21 18:52:22;;;;;;;71.82;36.00;;;;;;;-2.87;80.95;101125.03;4991473;28;20081;-70
2024/01/21 18:54:50;;;;;;;71.28;34.05;;;;;;;-2.93;80.98;101127.13;4991088;28;20054;-70
2024/01/21 18:57:17;;;;;;;65.68;34.95;;;;;;;-2.96;80.65;101115.03;5005828;28;20046;-71
2024/01/21 18:59:46;;;;;;;68.85;34.35;;;;;;;-2.98;80.77;101121.66;5010201;28;20473;-71
2024/01/21 19:02:16;;;;;;;64.20;32.55;;;;;;;-2.90;80.27;101112.06;5016489;28;20496;-70
2024/01/21 19:04:42;;;;;;;62.30;32.75;;;;;;;-2.95;80.15;101108.25;5071306;28;20497;-71
2024/01/21 19:07:09;;;;;;;68.30;32.78;;;;;;;-2.91;80.20;101115.38;5076194;28;20076;-71
2024/01/21 19:09:36;;;;;;;66.38;33.25;;;;;;;-2.99;80.65;101109.66;5062905;28;20075;-71
2024/01/21 19:12:04;;;;;;;74.30;33.28;;;;;;;-2.86;80.31;101122.59;5056936;28;20045;-71
2024/01/21 19:14:30;;;;;;;67.20;33.95;;;;;;;-2.83;80.49;101121.94;5082983;28;20080;-72
2024/01/21 19:16:57;;;;;;;70.40;33.67;;;;;;;-2.84;79.75;101122.75;4992432;28;20610;-72
2024/01/21 19:19:25;;;;;;;68.65;34.63;;;;;;;-2.91;79.35;101118.81;5003167;28;20072;-70
2024/01/21 19:21:51;;;;;;;69.60;34.13;;;;;;;-2.88;79.75;101111.41;5005739;28;20056;-71
2024/01/21 19:24:19;;;;;;;69.72;36.20;;;;;;;-3.01;79.79;101119.75;5008202;28;20496;-71
2024/01/21 19:26:45;;;;;;;74.18;36.45;;;;;;;-2.93;78.90;101122.00;5009984;28;20129;-71
2024/01/21 19:29:13;;;;;;;69.55;35.55;;;;;;;-2.88;79.32;101125.81;5010070;28;20137;-71
2024/01/21 19:31:40;;;;;;;72.63;35.72;;;;;;;-2.80;78.53;101128.19;5004256;28;20511;-71
2024/01/21 19:34:07;;;;;;;69.60;35.33;;;;;;;-2.70;78.44;101121.25;5005653;28;20048;-71
2024/01/21 19:36:35;;;;;;;72.60;36.30;;;;;;;-2.74;78.05;101122.66;5020540;28;20092;-70
2024/01/21 19:39:02;;;;;;;70.18;35.03;;;;;;;-2.69;77.68;101121.38;5085799;28;20045;-70
2024/01/21 19:41:28;;;;;;;78.90;36.08;;;;;;;-2.93;78.54;101114.34;4995073;27;20140;-70
2024/01/21 19:43:55;;;;;;;63.42;26.60;;;;;;;1.12;91.70;101098.31;4932692;28;20145;-62
2024/01/21 19:46:22;;;;;;;32.15;16.92;;;;;;;4.51;96.40;101081.75;5045822;28;20046;-64
2024/01/21 19:48:49;;;;;;;30.25;16.55;;;;;;;6.91;100.00;101073.16;5035821;28;20045;-63
2024/01/21 19:51:17;;;;;;;30.55;15.77;;;;;;;8.71;100.00;101068.19;5094950;28;20048;-63
2024/01/21 19:53:45;;;;;;;25.45;15.63;;;;;;;10.09;100.00;101072.06;5050801;28;20050;-63
2024/01/21 19:56:12;;;;;;;24.73;13.65;;;;;;;11.17;100.00;101061.59;5005612;28;20046;-63
2024/01/21 19:58:38;;;;;;;22.77;12.82;;;;;;;12.01;100.00;101063.22;5020873;28;20100;-63
2024/01/21 20:01:05;;;;;;;22.95;12.75;;;;;;;12.70;100.00;101065.22;5023827;28;20051;-64
2024/01/21 20:03:33;;;;;;;19.17;11.38;;;;;;;13.23;100.00;101077.25;5029012;28;20081;-63
2024/01/21 20:06:00;;;;;;;17.30;10.65;;;;;;;13.68;100.00;101071.72;5038422;28;20098;-64
2024/01/21 20:08:27;;;;;;;17.15;10.75;;;;;;;14.05;100.00;101071.22;5061799;28;20045;-63
2024/01/21 20:10:56;;;;;;;16.33;10.27;;;;;;;14.35;100.00;101071.47;5037191;28;20046;-64
2024/01/21 20:13:23;;;;;;;16.35;10.43;;;;;;;14.68;100.00;101062.13;4994494;28;20136;-64
2024/01/21 20:15:50;;;;;;;15.13;9.80;;;;;;;14.95;100.00;101057.94;4998983;28;20138;-65
2024/01/21 20:18:16;;;;;;;15.00;9.40;;;;;;;15.21;100.00;101059.78;4997981;28;20416;-64
2024/01/21 20:20:44;;;;;;;14.77;8.82;;;;;;;15.45;100.00;101052.03;5007771;28;20042;-64
2024/01/21 20:23:11;;;;;;;13.95;8.65;;;;;;;15.68;100.00;101045.94;5071112;28;20150;-64
2024/01/21 20:25:39;;;;;;;13.20;8.63;;;;;;;16.00;100.00;101045.16;5073887;28;20128;-64
2024/01/21 20:28:08;;;;;;;13.88;8.77;;;;;;;16.40;100.00;101043.41;5032191;28;20050;-64
2024/01/21 20:30:34;;;;;;;15.50;8.77;;;;;;;16.88;95.52;101038.06;5030068;28;20069;-64
2024/01/21 20:33:01;;;;;;;12.85;7.75;;;;;;;17.37;87.39;101026.44;5005753;28;20803;-64
2024/01/21 20:35:28;;;;;;;13.68;7.70;;;;;;;17.73;83.67;101033.28;4999651;28;20480;-64
2024/01/21 20:37:56;;;;;;;11.63;7.10;;;;;;;18.05;80.59;101040.13;4994637;28;20052;-64
2024/01/21 20:40:22;;;;;;;11.70;7.03;;;;;;;18.33;77.89;101042.53;5002242;28;20184;-63
2024/01/21 20:42:49;;;;;;;12.80;7.03;;;;;;;18.57;75.18;101039.66;4995515;28;20081;-64
2024/01/21 20:45:19;;;;;;;11.60;6.90;;;;;;;18.80;73.08;101025.38;4994243;28;20153;-64
2024/01/21 20:47:45;;;;;;;11.07;6.93;;;;;;;19.00;70.79;101028.66;4998534;28;20095;-64
2024/01/21 20:50:12;;;;;;;11.77;6.97;;;;;;;19.19;69.62;101018.75;4998713;28;20476;-64
2024/01/21 20:52:39;;;;;;;11.25;6.60;;;;;;;19.36;68.74;101025.56;5000359;28;20132;-64
2024/01/21 20:55:06;;;;;;;11.63;6.97;;;;;;;19.51;67.53;101019.19;4997702;28;20038;-64
2024/01/21 20:57:32;;;;;;;11.20;7.15;;;;;;;19.65;66.55;101025.16;5005458;28;20164;-64
2024/01/21 20:59:59;;;;;;;12.38;7.00;;;;;;;19.78;65.62;101028.53;4997912;28;20129;-64
2024/01/21 21:02:27;;;;;;;11.13;6.70;;;;;;;19.91;64.84;101029.19;4989032;28;20054;-64
2024/01/21 21:04:54;;;;;;;10.93;6.82;;;;;;;20.02;64.43;101022.84;4988825;28;20165;-64
2024/01/21 21:07:21;;;;;;;10.30;6.60;;;;;;;20.13;63.74;101020.03;4988774;28;20142;-64
2024/01/21 21:09:47;;;;;;;11.65;6.75;;;;;;;20.23;63.41;101021.59;4988986;28;20078;-64
2024/01/21 21:12:15;;;;;;;10.50;6.53;;;;;;;20.33;62.88;101032.91;4999418;28;20113;-64
2024/01/21 21:14:44;;;;;;;11.10;6.63;;;;;;;20.43;62.38;101029.22;5008552;28;20050;-64
2024/01/21 21:17:11;;;;;;;10.23;6.20;;;;;;;20.51;62.10;101015.84;5008444;28;20049;-64
2024/01/21 21:19:40;;;;;;;11.23;6.40;;;;;;;20.59;61.67;101023.66;5008180;28;20064;-64
2024/01/21 21:22:06;;;;;;;10.80;6.38;;;;;;;20.66;61.33;101025.28;5008053;28;20057;-64
2024/01/21 21:24:33;;;;;;;10.80;5.85;;;;;;;20.73;60.98;101026.06;5007764;28;20050;-64
2024/01/21 21:27:00;;;;;;;11.05;6.75;;;;;;;20.79;60.29;101026.81;5007904;28;20510;-64
2024/01/21 21:29:27;;;;;;;10.07;6.05;;;;;;;20.84;60.36;101019.66;5007863;28;20089;-64
2024/01/21 21:31:53;;;;;;;12.32;6.57;;;;;;;20.90;60.08;101031.91;5008122;28;20089;-64
2024/01/21 21:34:20;;;;;;;10.55;6.20;;;;;;;20.95;59.74;101024.72;5008125;28;20447;-64
2024/01/21 21:36:48;;;;;;;9.90;6.25;;;;;;;21.00;59.56;101022.00;5007786;28;20133;-64
2024/01/21 21:39:16;;;;;;;10.45;6.38;;;;;;;21.05;59.25;101014.78;5007927;28;20132;-64
2024/01/21 21:41:43;;;;;;;10.55;6.40;;;;;;;21.09;59.20;101002.34;5010285;28;20081;-64
2024/01/21 21:44:09;;;;;;;10.70;6.03;;;;;;;21.12;58.94;100995.22;5011279;28;20137;-64
2024/01/21 21:46:36;;;;;;;9.73;5.70;;;;;;;21.16;58.74;101004.84;5011590;28;20132;-64
2024/01/21 21:49:03;;;;;;;9.93;6.00;;;;;;;21.20;58.65;101010.97;5010344;28;20132;-64
2024/01/21 21:51:29;;;;;;;9.75;5.78;;;;;;;21.23;58.45;101005.59;4991807;28;20477;-64
2024/01/21 21:53:57;;;;;;;11.20;6.22;;;;;;;21.26;58.42;101013.47;4991805;28;20137;-64
2024/01/21 21:56:24;;;;;;;10.88;5.97;;;;;;;21.28;57.96;101006.34;4991554;28;20057;-64
2024/01/21 21:58:52;;;;;;;10.48;6.00;;;;;;;21.31;58.16;100998.34;4998432;28;20038;-64
2024/01/21 22:01:19;;;;;;;9.57;5.97;;;;;;;21.34;57.89;101005.34;5011685;28;20053;-64
2024/01/21 22:03:46;;;;;;;10.43;6.45;;;;;;;21.35;57.69;101005.31;5008221;28;20488;-64
2024/01/21 22:06:13;;;;;;;10.48;5.97;;;;;;;21.38;57.67;101001.72;4992484;28;20054;-64
2024/01/21 22:08:39;;;;;;;10.30;6.10;;;;;;;21.39;57.36;101006.13;4992067;28;20154;-64
2024/01/21 22:11:08;;;;;;;9.93;5.95;;;;;;;21.41;57.39;101007.84;4992053;28;20481;-64
2024/01/21 22:13:35;;;;;;;10.23;6.10;;;;;;;21.42;57.21;101014.91;4992127;28;20054;-64
2024/01/21 22:16:01;;;;;;;9.57;6.00;;;;;;;21.43;57.14;101019.31;5010907;28;20058;-64
2024/01/21 22:18:28;;;;;;;10.18;6.18;;;;;;;21.45;57.26;101018.41;5011309;28;20412;-64
2024/01/21 22:20:55;;;;;;;9.40;5.78;;;;;;;21.45;57.33;101024.59;5011562;28;20137;-65
2024/01/21 22:23:22;;;;;;;10.38;6.28;;;;;;;21.47;57.09;101016.59;5001316;28;20054;-64
2024/01/21 22:25:48;;;;;;;10.43;5.93;;;;;;;21.47;56.94;101003.34;4992161;28;20129;-64
2024/01/21 22:28:16;;;;;;;9.50;5.50;;;;;;;21.48;57.03;101015.69;4992075;28;20584;-64
2024/01/21 22:30:43;;;;;;;10.27;5.93;;;;;;;21.49;57.00;101017.44;4992389;28;20126;-64
2024/01/21 22:33:10;;;;;;;10.30;5.93;;;;;;;21.49;56.61;101020.97;4999481;28;20057;-64
2024/01/21 22:35:37;;;;;;;9.73;5.93;;;;;;;21.50;56.46;101021.81;5011499;28;20053;-64
2024/01/21 23:35:22;;;;;;;7.97;4.70;;;;;;;20.47;58.91;101030.00;5150320;27;20169;-62
